Herzlich willkommen!

Am freundlichen Bodensee-Flugplatz zwischen Schwarzwald, Rhein und Alpen.

Aktuelles

Bitte beachten Sie aus gegebenem Anlass auch unseren aktuellen Pilotenhinweis!

15.02.2021
Flugplatz überschwemmt
Platz ist voraussichtlich bis 28. Feb. 2021 PPR. Tel. Erreichbarkeit unter: 0172-7411981 oder 0170-5403107
— Flugleitung EDTZ

Live am Platz

Die Bilder unserer Webcams werden alle 5 Minuten aktualisiert.

Sonnenaufgang:

06:09 UTC / 07:09 Lokal

Sonnenuntergang:

17:03 UTC / 18:03 Lokal

TAF (24.02.2021 23:00 UTC):

TAF EDNY 242300Z 2500/2524 VRB03KT CAVOK PROB30 TEMPO 2504/2508 4000 BCFG TEMPO 2511/2516 23005KT

Alle Angaben unverbindlich und ohne Gewähr. Zeiten genähert.

Für den Verkehrslandeplatz Konstanz werden keine offiziellen Wetterinformationen ausgegeben. Daher werden zur Orientierung Daten des nahegelegenen Flughafens Friedrichshafen dargestellt.